sensor_id;sensor_type;location;lat;lon;timestamp;temperature;humidity
8114;DHT22;4099;52.684;9.918;2023-06-22T00:00:58;18.40;99.90
8114;DHT22;4099;52.684;9.918;2023-06-22T00:06:01;18.20;99.90
8114;DHT22;4099;52.684;9.918;2023-06-22T00:11:04;18.10;99.90
8114;DHT22;4099;52.684;9.918;2023-06-22T00:16:07;18.10;99.90
8114;DHT22;4099;52.684;9.918;2023-06-22T00:21:09;18.10;99.90
8114;DHT22;4099;52.684;9.918;2023-06-22T00:26:13;18.00;99.90
8114;DHT22;4099;52.684;9.918;2023-06-22T00:31:16;17.90;99.90
8114;DHT22;4099;52.684;9.918;2023-06-22T00:36:19;17.70;99.90
8114;DHT22;4099;52.684;9.918;2023-06-22T00:41:20;17.60;99.90
8114;DHT22;4099;52.684;9.918;2023-06-22T00:46:25;17.60;99.90
8114;DHT22;4099;52.684;9.918;2023-06-22T00:51:27;17.60;99.90
8114;DHT22;4099;52.684;9.918;2023-06-22T00:56:29;17.50;99.90
8114;DHT22;4099;52.684;9.918;2023-06-22T01:01:32;17.40;99.90
8114;DHT22;4099;52.684;9.918;2023-06-22T01:06:47;17.30;99.90
8114;DHT22;4099;52.684;9.918;2023-06-22T01:12:01;17.40;99.90
8114;DHT22;4099;52.684;9.918;2023-06-22T01:17:08;17.40;99.90
8114;DHT22;4099;52.684;9.918;2023-06-22T01:22:11;17.60;99.90
8114;DHT22;4099;52.684;9.918;2023-06-22T01:27:23;17.90;99.90
8114;DHT22;4099;52.684;9.918;2023-06-22T01:32:34;18.00;99.90
8114;DHT22;4099;52.684;9.918;2023-06-22T01:37:37;17.80;99.90
8114;DHT22;4099;52.684;9.918;2023-06-22T01:42:42;17.80;99.90
8114;DHT22;4099;52.684;9.918;2023-06-22T01:47:46;17.70;99.90
8114;DHT22;4099;52.684;9.918;2023-06-22T01:52:48;17.70;99.90
8114;DHT22;4099;52.684;9.918;2023-06-22T01:57:50;17.60;99.90
8114;DHT22;4099;52.684;9.918;2023-06-22T02:02:57;17.60;99.90
8114;DHT22;4099;52.684;9.918;2023-06-22T02:08:02;17.50;99.90
8114;DHT22;4099;52.684;9.918;2023-06-22T02:13:07;17.30;99.90
8114;DHT22;4099;52.684;9.918;2023-06-22T02:18:12;17.20;99.90
8114;DHT22;4099;52.684;9.918;2023-06-22T02:23:14;17.00;99.90
8114;DHT22;4099;52.684;9.918;2023-06-22T02:28:16;16.90;99.90
8114;DHT22;4099;52.684;9.918;2023-06-22T02:33:21;17.00;99.90
8114;DHT22;4099;52.684;9.918;2023-06-22T02:38:22;17.00;99.90
8114;DHT22;4099;52.684;9.918;2023-06-22T02:43:26;16.90;99.90
8114;DHT22;4099;52.684;9.918;2023-06-22T02:48:29;16.80;99.90
8114;DHT22;4099;52.684;9.918;2023-06-22T02:53:31;16.70;99.90
8114;DHT22;4099;52.684;9.918;2023-06-22T02:58:33;16.80;99.90
8114;DHT22;4099;52.684;9.918;2023-06-22T03:03:43;16.80;99.90
8114;DHT22;4099;52.684;9.918;2023-06-22T03:08:44;16.70;99.90
8114;DHT22;4099;52.684;9.918;2023-06-22T03:13:46;16.70;99.90
8114;DHT22;4099;52.684;9.918;2023-06-22T03:18:51;16.60;99.90
8114;DHT22;4099;52.684;9.918;2023-06-22T03:23:53;16.70;99.90
8114;DHT22;4099;52.684;9.918;2023-06-22T03:28:56;16.70;99.90
8114;DHT22;4099;52.684;9.918;2023-06-22T03:34:00;16.80;99.90
8114;DHT22;4099;52.684;9.918;2023-06-22T03:39:01;17.00;99.90
8114;DHT22;4099;52.684;9.918;2023-06-22T03:44:04;17.10;99.90
8114;DHT22;4099;52.684;9.918;2023-06-22T03:49:07;17.30;99.90
8114;DHT22;4099;52.684;9.918;2023-06-22T03:54:09;17.40;99.90
8114;DHT22;4099;52.684;9.918;2023-06-22T03:59:12;17.60;99.90
8114;DHT22;4099;52.684;9.918;2023-06-22T04:04:15;17.70;99.90
8114;DHT22;4099;52.684;9.918;2023-06-22T04:09:17;17.70;99.90
8114;DHT22;4099;52.684;9.918;2023-06-22T04:14:19;17.70;99.90
8114;DHT22;4099;52.684;9.918;2023-06-22T04:19:22;17.80;99.90
8114;DHT22;4099;52.684;9.918;2023-06-22T04:24:24;17.80;99.90
8114;DHT22;4099;52.684;9.918;2023-06-22T04:29:26;17.80;99.90
8114;DHT22;4099;52.684;9.918;2023-06-22T04:34:32;17.80;99.90
8114;DHT22;4099;52.684;9.918;2023-06-22T04:39:34;17.90;99.90
8114;DHT22;4099;52.684;9.918;2023-06-22T04:44:36;18.00;99.90
8114;DHT22;4099;52.684;9.918;2023-06-22T04:49:39;18.20;99.90
8114;DHT22;4099;52.684;9.918;2023-06-22T04:54:43;18.40;99.90
8114;DHT22;4099;52.684;9.918;2023-06-22T04:59:48;18.60;99.90
8114;DHT22;4099;52.684;9.918;2023-06-22T05:04:51;18.70;99.90
8114;DHT22;4099;52.684;9.918;2023-06-22T05:09:57;18.70;99.90
8114;DHT22;4099;52.684;9.918;2023-06-22T05:14:59;18.80;99.90
8114;DHT22;4099;52.684;9.918;2023-06-22T05:20:04;18.80;99.90
8114;DHT22;4099;52.684;9.918;2023-06-22T05:25:09;18.80;99.90
8114;DHT22;4099;52.684;9.918;2023-06-22T05:30:11;18.90;99.90
8114;DHT22;4099;52.684;9.918;2023-06-22T05:35:15;19.20;99.90
8114;DHT22;4099;52.684;9.918;2023-06-22T05:40:17;19.40;99.90
8114;DHT22;4099;52.684;9.918;2023-06-22T05:45:19;19.70;99.90
8114;DHT22;4099;52.684;9.918;2023-06-22T05:50:22;20.30;99.90
8114;DHT22;4099;52.684;9.918;2023-06-22T05:55:24;20.50;99.90
8114;DHT22;4099;52.684;9.918;2023-06-22T06:00:26;20.60;99.90
8114;DHT22;4099;52.684;9.918;2023-06-22T06:05:30;20.70;99.90
8114;DHT22;4099;52.684;9.918;2023-06-22T06:10:32;20.70;99.90
8114;DHT22;4099;52.684;9.918;2023-06-22T06:15:35;20.90;99.90
8114;DHT22;4099;52.684;9.918;2023-06-22T06:20:38;21.20;99.90
8114;DHT22;4099;52.684;9.918;2023-06-22T06:25:40;21.60;99.90
8114;DHT22;4099;52.684;9.918;2023-06-22T06:30:42;22.00;99.90
8114;DHT22;4099;52.684;9.918;2023-06-22T06:35:45;22.40;99.90
8114;DHT22;4099;52.684;9.918;2023-06-22T06:40:48;22.30;99.90
8114;DHT22;4099;52.684;9.918;2023-06-22T06:45:50;22.50;99.90
8114;DHT22;4099;52.684;9.918;2023-06-22T06:50:53;22.80;99.90
8114;DHT22;4099;52.684;9.918;2023-06-22T06:55:54;23.00;99.90
8114;DHT22;4099;52.684;9.918;2023-06-22T07:00:57;23.10;99.90
8114;DHT22;4099;52.684;9.918;2023-06-22T07:06:00;23.30;99.90
8114;DHT22;4099;52.684;9.918;2023-06-22T07:11:02;23.80;99.90
8114;DHT22;4099;52.684;9.918;2023-06-22T07:16:04;24.30;99.90
8114;DHT22;4099;52.684;9.918;2023-06-22T07:21:07;24.70;99.90
8114;DHT22;4099;52.684;9.918;2023-06-22T07:26:10;25.30;99.90
8114;DHT22;4099;52.684;9.918;2023-06-22T07:31:13;25.40;99.90
8114;DHT22;4099;52.684;9.918;2023-06-22T07:36:16;25.60;99.50
8114;DHT22;4099;52.684;9.918;2023-06-22T07:41:19;25.60;99.90
8114;DHT22;4099;52.684;9.918;2023-06-22T07:46:21;26.10;99.90
8114;DHT22;4099;52.684;9.918;2023-06-22T07:51:24;26.50;99.40
8114;DHT22;4099;52.684;9.918;2023-06-22T07:56:26;26.90;98.20
8114;DHT22;4099;52.684;9.918;2023-06-22T08:01:28;27.00;98.30
8114;DHT22;4099;52.684;9.918;2023-06-22T08:06:31;27.40;96.90
8114;DHT22;4099;52.684;9.918;2023-06-22T08:11:35;27.70;97.30
8114;DHT22;4099;52.684;9.918;2023-06-22T08:16:37;27.80;95.80
8114;DHT22;4099;52.684;9.918;2023-06-22T08:21:43;27.80;94.70
8114;DHT22;4099;52.684;9.918;2023-06-22T08:26:45;27.90;96.00
8114;DHT22;4099;52.684;9.918;2023-06-22T08:31:47;28.00;95.40
8114;DHT22;4099;52.684;9.918;2023-06-22T08:36:50;28.10;96.30
8114;DHT22;4099;52.684;9.918;2023-06-22T08:41:53;28.40;95.70
8114;DHT22;4099;52.684;9.918;2023-06-22T08:46:55;28.50;95.30
8114;DHT22;4099;52.684;9.918;2023-06-22T08:51:58;28.90;95.40
8114;DHT22;4099;52.684;9.918;2023-06-22T08:57:01;29.30;94.90
8114;DHT22;4099;52.684;9.918;2023-06-22T09:02:03;29.70;94.10
8114;DHT22;4099;52.684;9.918;2023-06-22T09:07:07;30.00;93.20
8114;DHT22;4099;52.684;9.918;2023-06-22T09:12:10;29.90;93.80
8114;DHT22;4099;52.684;9.918;2023-06-22T09:17:12;29.30;94.70
8114;DHT22;4099;52.684;9.918;2023-06-22T09:22:15;29.00;94.30
8114;DHT22;4099;52.684;9.918;2023-06-22T09:27:17;29.00;95.40
8114;DHT22;4099;52.684;9.918;2023-06-22T09:32:19;29.30;94.30
8114;DHT22;4099;52.684;9.918;2023-06-22T09:37:22;29.50;94.30
8114;DHT22;4099;52.684;9.918;2023-06-22T09:42:24;29.70;93.80
8114;DHT22;4099;52.684;9.918;2023-06-22T09:47:26;30.20;93.50
8114;DHT22;4099;52.684;9.918;2023-06-22T09:52:29;30.60;92.80
8114;DHT22;4099;52.684;9.918;2023-06-22T09:57:32;30.70;92.40
8114;DHT22;4099;52.684;9.918;2023-06-22T10:02:35;31.30;91.50
8114;DHT22;4099;52.684;9.918;2023-06-22T10:07:38;30.50;92.10
8114;DHT22;4099;52.684;9.918;2023-06-22T10:12:47;30.30;92.40
8114;DHT22;4099;52.684;9.918;2023-06-22T10:17:49;29.90;91.80
8114;DHT22;4099;52.684;9.918;2023-06-22T10:22:52;30.20;92.80
8114;DHT22;4099;52.684;9.918;2023-06-22T10:27:54;30.30;92.60
8114;DHT22;4099;52.684;9.918;2023-06-22T10:32:56;30.40;91.90
8114;DHT22;4099;52.684;9.918;2023-06-22T10:37:59;30.00;92.30
8114;DHT22;4099;52.684;9.918;2023-06-22T10:43:01;29.70;92.90
8114;DHT22;4099;52.684;9.918;2023-06-22T10:48:04;29.40;93.10
8114;DHT22;4099;52.684;9.918;2023-06-22T10:53:07;29.30;93.60
8114;DHT22;4099;52.684;9.918;2023-06-22T10:58:09;29.60;94.10
8114;DHT22;4099;52.684;9.918;2023-06-22T11:03:12;29.60;94.20
8114;DHT22;4099;52.684;9.918;2023-06-22T11:08:16;29.50;94.10
8114;DHT22;4099;52.684;9.918;2023-06-22T11:13:18;29.20;94.10
8114;DHT22;4099;52.684;9.918;2023-06-22T11:18:20;29.10;94.40
8114;DHT22;4099;52.684;9.918;2023-06-22T11:23:25;29.10;94.70
8114;DHT22;4099;52.684;9.918;2023-06-22T11:28:27;29.50;93.60
8114;DHT22;4099;52.684;9.918;2023-06-22T11:33:29;29.90;93.20
8114;DHT22;4099;52.684;9.918;2023-06-22T11:38:32;29.80;93.30
8114;DHT22;4099;52.684;9.918;2023-06-22T11:43:34;29.70;94.00
8114;DHT22;4099;52.684;9.918;2023-06-22T11:48:36;29.90;93.10
8114;DHT22;4099;52.684;9.918;2023-06-22T11:53:40;30.50;93.10
8114;DHT22;4099;52.684;9.918;2023-06-22T11:58:41;30.40;93.10
8114;DHT22;4099;52.684;9.918;2023-06-22T12:03:43;30.50;92.70
8114;DHT22;4099;52.684;9.918;2023-06-22T12:08:46;30.80;92.40
8114;DHT22;4099;52.684;9.918;2023-06-22T12:13:48;30.90;91.90
8114;DHT22;4099;52.684;9.918;2023-06-22T12:18:50;31.20;92.80
8114;DHT22;4099;52.684;9.918;2023-06-22T12:23:53;31.30;92.20
8114;DHT22;4099;52.684;9.918;2023-06-22T12:28:55;31.40;92.40
8114;DHT22;4099;52.684;9.918;2023-06-22T12:33:57;31.40;91.40
8114;DHT22;4099;52.684;9.918;2023-06-22T12:39:01;31.20;91.70
8114;DHT22;4099;52.684;9.918;2023-06-22T12:44:02;31.70;91.30
8114;DHT22;4099;52.684;9.918;2023-06-22T12:49:05;31.50;90.90
8114;DHT22;4099;52.684;9.918;2023-06-22T12:54:08;31.60;92.40
8114;DHT22;4099;52.684;9.918;2023-06-22T12:59:10;32.20;90.80
8114;DHT22;4099;52.684;9.918;2023-06-22T13:04:11;32.30;90.70
8114;DHT22;4099;52.684;9.918;2023-06-22T13:09:19;32.20;91.10
8114;DHT22;4099;52.684;9.918;2023-06-22T13:14:21;31.70;90.30
8114;DHT22;4099;52.684;9.918;2023-06-22T13:19:23;31.80;90.50
8114;DHT22;4099;52.684;9.918;2023-06-22T13:24:28;32.50;91.10
8114;DHT22;4099;52.684;9.918;2023-06-22T13:29:29;32.80;89.20
8114;DHT22;4099;52.684;9.918;2023-06-22T13:34:32;32.90;88.00
8114;DHT22;4099;52.684;9.918;2023-06-22T13:39:35;34.40;89.40
8114;DHT22;4099;52.684;9.918;2023-06-22T13:44:37;33.50;86.40
8114;DHT22;4099;52.684;9.918;2023-06-22T13:49:39;32.30;90.30
8114;DHT22;4099;52.684;9.918;2023-06-22T13:54:42;31.50;90.70
8114;DHT22;4099;52.684;9.918;2023-06-22T13:59:44;30.80;91.30
8114;DHT22;4099;52.684;9.918;2023-06-22T14:04:46;30.50;92.10
8114;DHT22;4099;52.684;9.918;2023-06-22T14:09:49;29.60;93.70
8114;DHT22;4099;52.684;9.918;2023-06-22T14:14:51;29.30;92.70
8114;DHT22;4099;52.684;9.918;2023-06-22T14:19:54;28.80;93.00
8114;DHT22;4099;52.684;9.918;2023-06-22T14:24:58;28.30;93.70
8114;DHT22;4099;52.684;9.918;2023-06-22T14:30:00;27.70;94.90
8114;DHT22;4099;52.684;9.918;2023-06-22T14:35:02;26.90;99.90
8114;DHT22;4099;52.684;9.918;2023-06-22T14:40:06;26.40;99.90
8114;DHT22;4099;52.684;9.918;2023-06-22T14:45:09;26.10;99.90
8114;DHT22;4099;52.684;9.918;2023-06-22T14:50:11;25.90;99.90
8114;DHT22;4099;52.684;9.918;2023-06-22T14:55:17;25.80;99.90
8114;DHT22;4099;52.684;9.918;2023-06-22T15:00:20;25.70;99.90
8114;DHT22;4099;52.684;9.918;2023-06-22T15:05:22;25.60;99.90
8114;DHT22;4099;52.684;9.918;2023-06-22T15:10:26;25.40;99.90
8114;DHT22;4099;52.684;9.918;2023-06-22T15:15:28;25.20;99.90
8114;DHT22;4099;52.684;9.918;2023-06-22T15:20:30;24.90;99.90
8114;DHT22;4099;52.684;9.918;2023-06-22T15:25:34;24.60;99.90
8114;DHT22;4099;52.684;9.918;2023-06-22T15:30:36;24.50;99.90
8114;DHT22;4099;52.684;9.918;2023-06-22T15:35:38;24.20;99.90
8114;DHT22;4099;52.684;9.918;2023-06-22T15:40:41;23.80;99.90
8114;DHT22;4099;52.684;9.918;2023-06-22T15:45:43;23.30;99.90
8114;DHT22;4099;52.684;9.918;2023-06-22T15:50:45;22.90;99.90
8114;DHT22;4099;52.684;9.918;2023-06-22T15:55:49;23.40;99.90
8114;DHT22;4099;52.684;9.918;2023-06-22T16:00:51;22.90;99.90
8114;DHT22;4099;52.684;9.918;2023-06-22T16:05:53;22.30;99.90
8114;DHT22;4099;52.684;9.918;2023-06-22T16:10:56;22.50;99.90
8114;DHT22;4099;52.684;9.918;2023-06-22T16:15:59;22.10;99.90
8114;DHT22;4099;52.684;9.918;2023-06-22T16:21:01;21.60;99.90
8114;DHT22;4099;52.684;9.918;2023-06-22T16:26:05;21.40;99.90
8114;DHT22;4099;52.684;9.918;2023-06-22T16:31:07;21.40;99.90
8114;DHT22;4099;52.684;9.918;2023-06-22T16:36:09;21.60;99.90
8114;DHT22;4099;52.684;9.918;2023-06-22T16:41:12;21.50;99.90
8114;DHT22;4099;52.684;9.918;2023-06-22T16:46:15;21.40;99.90
8114;DHT22;4099;52.684;9.918;2023-06-22T16:51:17;21.20;99.90
8114;DHT22;4099;52.684;9.918;2023-06-22T16:56:23;21.10;99.90
8114;DHT22;4099;52.684;9.918;2023-06-22T17:01:26;21.00;99.90
8114;DHT22;4099;52.684;9.918;2023-06-22T17:06:28;21.10;99.90
8114;DHT22;4099;52.684;9.918;2023-06-22T17:11:34;21.10;99.90
8114;DHT22;4099;52.684;9.918;2023-06-22T17:16:37;21.00;99.90
8114;DHT22;4099;52.684;9.918;2023-06-22T17:21:43;20.90;99.90
8114;DHT22;4099;52.684;9.918;2023-06-22T17:26:47;21.00;99.90
8114;DHT22;4099;52.684;9.918;2023-06-22T17:31:56;20.80;99.90
8114;DHT22;4099;52.684;9.918;2023-06-22T17:36:58;20.80;99.90
8114;DHT22;4099;52.684;9.918;2023-06-22T17:42:07;20.70;99.90
8114;DHT22;4099;52.684;9.918;2023-06-22T17:47:09;20.70;99.90
8114;DHT22;4099;52.684;9.918;2023-06-22T17:52:16;20.60;99.90
8114;DHT22;4099;52.684;9.918;2023-06-22T17:57:20;20.50;99.90
8114;DHT22;4099;52.684;9.918;2023-06-22T18:02:24;20.40;99.90
8114;DHT22;4099;52.684;9.918;2023-06-22T18:07:26;20.30;99.90
8114;DHT22;4099;52.684;9.918;2023-06-22T18:12:34;20.20;99.90
8114;DHT22;4099;52.684;9.918;2023-06-22T18:17:36;20.20;99.90
8114;DHT22;4099;52.684;9.918;2023-06-22T18:22:40;20.20;99.90
8114;DHT22;4099;52.684;9.918;2023-06-22T18:27:45;20.20;99.90
8114;DHT22;4099;52.684;9.918;2023-06-22T18:32:47;20.00;99.90
8114;DHT22;4099;52.684;9.918;2023-06-22T18:37:50;20.00;99.90
8114;DHT22;4099;52.684;9.918;2023-06-22T18:42:59;20.10;99.90
8114;DHT22;4099;52.684;9.918;2023-06-22T18:48:02;20.20;99.90
8114;DHT22;4099;52.684;9.918;2023-06-22T18:53:10;20.10;99.90
8114;DHT22;4099;52.684;9.918;2023-06-22T18:58:16;19.90;99.90
8114;DHT22;4099;52.684;9.918;2023-06-22T19:03:29;19.90;99.90
8114;DHT22;4099;52.684;9.918;2023-06-22T19:14:08;19.80;99.90
8114;DHT22;4099;52.684;9.918;2023-06-22T19:19:12;19.60;99.90
8114;DHT22;4099;52.684;9.918;2023-06-22T19:24:28;19.80;99.90
8114;DHT22;4099;52.684;9.918;2023-06-22T19:29:33;19.50;99.90
8114;DHT22;4099;52.684;9.918;2023-06-22T19:34:41;19.60;99.90
8114;DHT22;4099;52.684;9.918;2023-06-22T19:39:47;19.50;99.90
8114;DHT22;4099;52.684;9.918;2023-06-22T19:44:52;19.50;99.90
8114;DHT22;4099;52.684;9.918;2023-06-22T19:49:58;19.50;99.90
8114;DHT22;4099;52.684;9.918;2023-06-22T19:55:02;19.70;99.90
8114;DHT22;4099;52.684;9.918;2023-06-22T20:00:08;19.80;99.90
8114;DHT22;4099;52.684;9.918;2023-06-22T20:05:13;19.80;99.90
8114;DHT22;4099;52.684;9.918;2023-06-22T20:10:18;19.90;99.90
8114;DHT22;4099;52.684;9.918;2023-06-22T20:15:24;20.00;99.90
8114;DHT22;4099;52.684;9.918;2023-06-22T20:20:28;19.90;99.90
8114;DHT22;4099;52.684;9.918;2023-06-22T20:25:35;19.80;99.90
8114;DHT22;4099;52.684;9.918;2023-06-22T20:30:42;19.70;99.90
8114;DHT22;4099;52.684;9.918;2023-06-22T20:35:44;19.60;99.90
8114;DHT22;4099;52.684;9.918;2023-06-22T20:40:49;19.40;99.90
8114;DHT22;4099;52.684;9.918;2023-06-22T20:45:54;19.30;99.90
8114;DHT22;4099;52.684;9.918;2023-06-22T21:03:46;19.20;99.90
8114;DHT22;4099;52.684;9.918;2023-06-22T21:08:48;19.10;99.90
8114;DHT22;4099;52.684;9.918;2023-06-22T21:13:50;19.00;99.90
8114;DHT22;4099;52.684;9.918;2023-06-22T21:18:53;19.10;99.90
8114;DHT22;4099;52.684;9.918;2023-06-22T21:23:55;19.10;99.90
8114;DHT22;4099;52.684;9.918;2023-06-22T21:28:57;19.10;99.90
8114;DHT22;4099;52.684;9.918;2023-06-22T21:34:00;19.10;99.90
8114;DHT22;4099;52.684;9.918;2023-06-22T21:39:02;19.00;99.90
8114;DHT22;4099;52.684;9.918;2023-06-22T21:44:04;18.90;99.90
8114;DHT22;4099;52.684;9.918;2023-06-22T21:49:07;19.00;99.90
8114;DHT22;4099;52.684;9.918;2023-06-22T21:54:09;19.10;99.90
8114;DHT22;4099;52.684;9.918;2023-06-22T21:59:11;19.10;99.90
8114;DHT22;4099;52.684;9.918;2023-06-22T22:04:15;19.20;99.90
8114;DHT22;4099;52.684;9.918;2023-06-22T22:09:17;19.20;99.90
8114;DHT22;4099;52.684;9.918;2023-06-22T22:14:20;19.30;99.90
8114;DHT22;4099;52.684;9.918;2023-06-22T22:19:23;19.20;99.90
8114;DHT22;4099;52.684;9.918;2023-06-22T22:24:25;19.10;99.90
8114;DHT22;4099;52.684;9.918;2023-06-22T22:29:29;19.20;99.90
8114;DHT22;4099;52.684;9.918;2023-06-22T22:34:33;19.00;99.90
8114;DHT22;4099;52.684;9.918;2023-06-22T22:39:36;19.00;99.90
8114;DHT22;4099;52.684;9.918;2023-06-22T22:44:39;19.00;99.90
8114;DHT22;4099;52.684;9.918;2023-06-22T22:49:42;19.00;99.90
8114;DHT22;4099;52.684;9.918;2023-06-22T22:54:44;19.00;99.90
8114;DHT22;4099;52.684;9.918;2023-06-22T22:59:45;18.90;99.90
8114;DHT22;4099;52.684;9.918;2023-06-22T23:04:55;18.80;99.90
8114;DHT22;4099;52.684;9.918;2023-06-22T23:09:58;18.80;99.90
8114;DHT22;4099;52.684;9.918;2023-06-22T23:15:00;18.80;99.90
8114;DHT22;4099;52.684;9.918;2023-06-22T23:20:05;18.80;99.90
8114;DHT22;4099;52.684;9.918;2023-06-22T23:25:09;18.90;99.90
8114;DHT22;4099;52.684;9.918;2023-06-22T23:30:11;18.90;99.90
8114;DHT22;4099;52.684;9.918;2023-06-22T23:35:15;18.90;99.90
8114;DHT22;4099;52.684;9.918;2023-06-22T23:40:17;18.90;99.90
8114;DHT22;4099;52.684;9.918;2023-06-22T23:45:19;19.00;99.90
8114;DHT22;4099;52.684;9.918;2023-06-22T23:50:23;19.10;99.90
8114;DHT22;4099;52.684;9.918;2023-06-22T23:55:25;19.20;99.90
